Time;durP1;ratioP1;P1;durP2;ratioP2;P2;SDS_P1;SDS_P2;PMS_P1;PMS_P2;Temp;Humidity;BMP_temperature;BMP_pressure;BME280_temperature;BME280_humidity;BME280_pressure;Samples;Min_cycle;Max_cycle;Signal;HPM_P1;HPM_P2
2024/01/21 00:00:11;;;;;;;16.17;12.75;;;;;;;-2.68;69.71;99188.13;5002519;28;20727;-76
2024/01/21 00:02:38;;;;;;;14.57;12.63;;;;;;;-2.90;70.14;99189.34;5008339;28;20223;-76
2024/01/21 00:05:05;;;;;;;14.48;11.77;;;;;;;-2.94;70.57;99193.16;5012808;28;20210;-75
2024/01/21 00:07:33;;;;;;;16.23;12.13;;;;;;;-2.81;70.49;99187.97;5009879;28;20728;-76
2024/01/21 00:10:00;;;;;;;16.73;13.25;;;;;;;-2.83;70.38;99188.06;5010480;28;20210;-76
2024/01/21 00:12:26;;;;;;;17.48;13.07;;;;;;;-2.90;70.39;99184.06;5024148;28;20202;-76
2024/01/21 00:14:53;;;;;;;16.67;12.55;;;;;;;-2.77;70.39;99181.56;5013654;28;20244;-76
2024/01/21 00:17:20;;;;;;;16.08;12.40;;;;;;;-2.88;70.42;99176.03;5014893;28;20191;-76
2024/01/21 00:19:47;;;;;;;15.60;13.32;;;;;;;-2.90;70.82;99188.50;5015329;28;20245;-76
2024/01/21 00:22:13;;;;;;;14.77;13.25;;;;;;;-2.97;71.79;99188.03;5010143;28;20252;-76
2024/01/21 00:24:41;;;;;;;21.33;15.30;;;;;;;-2.89;72.33;99187.56;5013323;28;20230;-76
2024/01/21 00:27:07;;;;;;;17.25;14.38;;;;;;;-2.84;72.43;99183.72;5013213;28;20210;-75
2024/01/21 00:29:34;;;;;;;20.65;15.20;;;;;;;-2.98;72.96;99175.75;5014454;28;20254;-76
2024/01/21 00:32:01;;;;;;;17.90;13.75;;;;;;;-2.90;72.92;99173.47;5013169;28;20216;-76
2024/01/21 00:34:27;;;;;;;16.55;13.85;;;;;;;-2.81;72.85;99170.28;5028829;28;20207;-75
2024/01/21 00:36:54;;;;;;;22.35;15.23;;;;;;;-2.83;73.34;99158.94;5004957;28;20293;-75
2024/01/21 00:39:20;;;;;;;19.48;14.43;;;;;;;-3.07;74.09;99163.03;5012047;28;20622;-76
2024/01/21 00:41:48;;;;;;;21.42;16.23;;;;;;;-2.91;73.88;99168.25;5010276;28;20293;-76
2024/01/21 00:44:14;;;;;;;20.02;15.30;;;;;;;-2.94;73.86;99171.97;5009732;28;20227;-75
2024/01/21 00:46:41;;;;;;;21.20;16.13;;;;;;;-3.07;74.16;99163.88;5005904;28;20298;-75
2024/01/21 00:49:08;;;;;;;18.85;14.30;;;;;;;-2.96;73.97;99167.72;5013563;28;20198;-76
2024/01/21 00:51:34;;;;;;;19.90;14.63;;;;;;;-2.86;73.49;99156.47;5005368;28;20213;-76
2024/01/21 00:54:01;;;;;;;20.23;15.82;;;;;;;-2.93;73.66;99168.38;5020945;28;20234;-76
2024/01/21 00:56:27;;;;;;;22.70;15.82;;;;;;;-2.90;73.82;99162.03;5012761;28;20249;-76
2024/01/21 00:58:55;;;;;;;20.05;15.35;;;;;;;-2.97;74.11;99171.28;5003304;28;20293;-76
2024/01/21 01:01:22;;;;;;;19.20;15.02;;;;;;;-3.19;74.55;99167.22;5013198;28;20203;-76
2024/01/21 01:03:48;;;;;;;21.05;15.23;;;;;;;-3.05;74.13;99162.00;5013280;28;20226;-77
2024/01/21 01:06:15;;;;;;;24.67;17.20;;;;;;;-3.11;74.09;99158.84;5000806;28;20290;-76
2024/01/21 01:08:41;;;;;;;22.27;17.50;;;;;;;-3.09;74.59;99167.56;5003776;28;20301;-76
2024/01/21 01:11:08;;;;;;;23.15;16.98;;;;;;;-3.17;74.86;99154.75;5011128;28;20285;-76
2024/01/21 01:13:34;;;;;;;23.10;19.05;;;;;;;-3.46;76.10;99156.44;5019575;28;20297;-75
2024/01/21 01:16:03;;;;;;;24.90;18.42;;;;;;;-3.55;76.78;99154.31;5004841;28;20674;-76
2024/01/21 01:18:29;;;;;;;23.08;17.20;;;;;;;-3.51;76.97;99147.91;5009730;28;20206;-76
2024/01/21 01:20:56;;;;;;;20.25;16.67;;;;;;;-3.52;77.13;99154.13;5010997;28;20209;-76
2024/01/21 01:23:22;;;;;;;23.48;18.08;;;;;;;-3.53;77.04;99151.56;5001970;28;20313;-76
2024/01/21 01:25:50;;;;;;;23.95;18.85;;;;;;;-3.62;77.37;99152.97;5009456;28;20203;-76
2024/01/21 01:28:16;;;;;;;21.48;17.30;;;;;;;-3.62;76.83;99145.03;5004079;28;20210;-76
2024/01/21 01:30:43;;;;;;;29.10;19.27;;;;;;;-3.84;77.41;99157.72;5012250;28;20290;-77
2024/01/21 01:33:11;;;;;;;22.08;17.83;;;;;;;-3.83;77.59;99160.28;5013851;28;20230;-75
2024/01/21 01:35:38;;;;;;;23.25;17.35;;;;;;;-3.89;78.15;99155.31;5020488;28;20226;-75
2024/01/21 01:38:05;;;;;;;26.48;18.25;;;;;;;-4.04;78.48;99150.03;5022195;28;20245;-77
2024/01/21 01:40:32;;;;;;;22.98;18.48;;;;;;;-4.13;78.88;99146.97;5013432;28;20195;-75
2024/01/21 01:43:02;;;;;;;26.80;19.52;;;;;;;-4.19;79.50;99151.72;5012440;28;20722;-75
2024/01/21 01:45:28;;;;;;;25.02;17.90;;;;;;;-4.03;79.26;99151.75;5019471;28;20298;-76
2024/01/21 01:47:55;;;;;;;25.70;19.88;;;;;;;-4.00;78.90;99151.59;5010192;28;20313;-76
2024/01/21 01:50:23;;;;;;;27.55;19.40;;;;;;;-4.14;79.06;99145.25;5012295;28;20369;-76
2024/01/21 01:52:50;;;;;;;24.55;17.70;;;;;;;-4.01;78.62;99145.44;5012697;28;20378;-76
2024/01/21 01:55:17;;;;;;;21.58;19.27;;;;;;;-4.16;79.31;99136.56;5025718;28;20206;-76
2024/01/21 01:57:45;;;;;;;23.55;19.70;;;;;;;-4.17;79.08;99129.56;5009054;28;20202;-76
2024/01/21 02:00:13;;;;;;;25.50;19.30;;;;;;;-4.24;79.67;99127.34;5009743;28;20293;-76
2024/01/21 02:02:40;;;;;;;26.15;19.85;;;;;;;-4.24;79.60;99132.66;4992007;28;20287;-76
2024/01/21 02:05:08;;;;;;;24.55;19.33;;;;;;;-4.29;79.88;99132.88;5007976;28;20206;-76
2024/01/21 02:07:36;;;;;;;24.67;18.80;;;;;;;-4.45;80.44;99124.06;5010044;28;20210;-76
2024/01/21 02:10:04;;;;;;;26.45;19.27;;;;;;;-4.50;81.26;99116.38;5010989;28;20505;-76
2024/01/21 02:12:30;;;;;;;24.98;20.45;;;;;;;-4.48;81.27;99109.22;5009778;28;20665;-76
2024/01/21 02:14:57;;;;;;;25.73;18.88;;;;;;;-4.47;81.26;99105.66;4992247;28;20202;-76
2024/01/21 02:17:24;;;;;;;31.00;21.33;;;;;;;-4.41;80.79;99100.03;5018963;28;20205;-75
2024/01/21 02:19:50;;;;;;;28.75;20.38;;;;;;;-4.61;81.46;99107.34;5010605;28;20210;-76
2024/01/21 02:22:17;;;;;;;24.02;20.08;;;;;;;-4.72;82.38;99101.75;5001591;28;20198;-75
2024/01/21 02:24:45;;;;;;;27.55;20.70;;;;;;;-4.79;82.19;99094.16;5009567;28;20226;-75
2024/01/21 02:27:12;;;;;;;28.83;21.35;;;;;;;-4.84;82.47;99096.19;5007911;28;20635;-75
2024/01/21 02:29:38;;;;;;;29.52;20.55;;;;;;;-4.97;83.17;99089.00;5010686;28;20234;-76
2024/01/21 02:32:05;;;;;;;28.50;21.45;;;;;;;-4.95;82.58;99087.13;5001168;28;20199;-75
2024/01/21 02:34:32;;;;;;;27.42;21.42;;;;;;;-4.96;83.07;99086.28;5009869;28;20205;-75
2024/01/21 02:36:59;;;;;;;27.70;21.85;;;;;;;-4.89;82.85;99092.97;5010920;28;20564;-76
2024/01/21 02:39:25;;;;;;;27.60;21.40;;;;;;;-4.96;82.37;99096.00;5009970;28;20277;-76
2024/01/21 02:41:53;;;;;;;27.98;20.85;;;;;;;-5.10;82.87;99094.06;5008938;28;20207;-75
2024/01/21 02:44:20;;;;;;;28.52;21.67;;;;;;;-5.15;83.21;99094.28;5015767;28;20297;-75
2024/01/21 02:46:46;;;;;;;24.70;20.38;;;;;;;-5.22;82.83;99099.97;4990235;28;20194;-75
2024/01/21 02:49:13;;;;;;;24.23;20.27;;;;;;;-5.16;82.63;99104.91;5009966;28;20237;-75
2024/01/21 02:51:40;;;;;;;27.33;20.15;;;;;;;-5.38;82.25;99099.88;5009562;28;20228;-75
2024/01/21 02:54:06;;;;;;;22.23;18.40;;;;;;;-5.44;82.77;99100.19;5010896;28;20221;-76
2024/01/21 02:56:33;;;;;;;23.83;19.55;;;;;;;-5.43;82.76;99092.19;5009596;28;20317;-75
2024/01/21 02:59:01;;;;;;;24.92;19.25;;;;;;;-5.50;82.76;99101.34;5011065;28;20203;-76
2024/01/21 03:01:27;;;;;;;25.88;18.73;;;;;;;-5.51;82.90;99099.63;5017912;28;20273;-75
2024/01/21 03:03:54;;;;;;;21.27;17.38;;;;;;;-5.46;82.94;99097.63;5015426;28;20302;-75
2024/01/21 03:06:21;;;;;;;21.67;17.48;;;;;;;-5.62;83.15;99094.03;5014458;28;20198;-76
2024/01/21 03:08:47;;;;;;;24.52;18.05;;;;;;;-5.71;83.31;99097.13;5001689;28;20197;-75
2024/01/21 03:11:14;;;;;;;21.52;16.80;;;;;;;-5.71;83.55;99097.13;5008948;28;20234;-75
2024/01/21 03:13:41;;;;;;;22.75;18.02;;;;;;;-5.70;83.82;99100.63;4991292;28;20277;-75
2024/01/21 03:16:09;;;;;;;25.05;20.15;;;;;;;-5.69;83.75;99103.19;5010548;28;20202;-75
2024/01/21 03:18:38;;;;;;;19.88;17.05;;;;;;;-5.70;83.63;99100.63;5009498;28;20202;-75
2024/01/21 03:21:05;;;;;;;21.63;17.17;;;;;;;-5.57;83.34;99099.09;5010694;28;20300;-75
2024/01/21 03:23:32;;;;;;;18.80;16.48;;;;;;;-5.60;83.45;99094.81;5006616;28;20246;-76
2024/01/21 03:25:58;;;;;;;19.15;15.38;;;;;;;-5.55;83.53;99098.09;5008536;28;20206;-76
2024/01/21 03:28:25;;;;;;;16.60;14.77;;;;;;;-5.41;82.44;99090.34;5006266;28;20697;-76
2024/01/21 03:30:52;;;;;;;19.80;16.00;;;;;;;-5.26;81.79;99091.34;5007751;28;20294;-76
2024/01/21 03:33:19;;;;;;;17.85;14.95;;;;;;;-5.09;81.22;99093.13;5008028;28;20211;-76
2024/01/21 03:35:47;;;;;;;21.88;14.98;;;;;;;-5.13;80.95;99088.94;5009840;28;20212;-75
2024/01/21 03:38:13;;;;;;;17.50;13.73;;;;;;;-5.15;80.72;99089.00;5000989;28;20210;-76
2024/01/21 03:40:40;;;;;;;16.02;13.73;;;;;;;-5.15;80.47;99080.22;5017566;28;20238;-76
2024/01/21 03:43:06;;;;;;;15.45;13.35;;;;;;;-4.99;79.88;99083.81;5007933;28;20198;-76
2024/01/21 03:45:33;;;;;;;14.90;13.10;;;;;;;-5.08;79.70;99076.34;5009059;28;20202;-75
2024/01/21 03:47:59;;;;;;;18.65;14.38;;;;;;;-5.14;79.88;99060.84;5007957;28;20703;-76
2024/01/21 03:50:28;;;;;;;18.15;13.65;;;;;;;-5.09;79.48;99064.09;5011109;28;20203;-76
2024/01/21 03:52:54;;;;;;;18.35;13.65;;;;;;;-5.03;79.26;99058.50;5012726;28;20198;-76
2024/01/21 03:55:21;;;;;;;14.63;13.02;;;;;;;-5.09;79.42;99064.94;5004603;28;20195;-75
2024/01/21 03:57:49;;;;;;;17.00;13.40;;;;;;;-5.01;79.00;99064.56;5010828;28;20272;-75
2024/01/21 04:00:16;;;;;;;15.27;13.13;;;;;;;-4.94;78.77;99068.59;5008295;28;20191;-76
2024/01/21 04:02:43;;;;;;;14.07;12.40;;;;;;;-5.07;78.71;99065.72;5011087;28;20277;-75
2024/01/21 04:05:09;;;;;;;13.63;11.73;;;;;;;-5.00;78.86;99063.63;4995303;28;20310;-76
2024/01/21 04:07:37;;;;;;;17.15;13.45;;;;;;;-5.30;79.42;99059.94;5011014;28;20648;-76
2024/01/21 04:10:06;;;;;;;15.73;13.32;;;;;;;-5.37;80.13;99061.16;5010689;28;20281;-76
2024/01/21 04:12:33;;;;;;;15.70;13.93;;;;;;;-5.31;79.93;99055.59;5011833;28;20203;-76
2024/01/21 04:14:59;;;;;;;16.13;12.77;;;;;;;-5.34;80.16;99050.47;5013072;28;20206;-75
2024/01/21 04:17:28;;;;;;;18.00;14.32;;;;;;;-5.46;80.24;99047.50;5004742;28;20198;-76
2024/01/21 04:19:54;;;;;;;17.05;14.73;;;;;;;-5.52;80.48;99037.28;5010520;28;20656;-75
2024/01/21 04:22:21;;;;;;;19.75;14.63;;;;;;;-5.64;81.17;99039.69;5011728;28;20289;-76
2024/01/21 04:24:49;;;;;;;19.20;14.90;;;;;;;-5.55;80.84;99040.09;5010219;28;20225;-75
2024/01/21 04:27:16;;;;;;;17.42;14.45;;;;;;;-5.64;81.50;99035.28;5026565;28;20213;-75
2024/01/21 04:29:42;;;;;;;17.98;15.48;;;;;;;-5.48;80.87;99036.19;5011824;28;20644;-75
2024/01/21 04:32:09;;;;;;;16.63;14.50;;;;;;;-5.50;81.40;99032.78;5012907;28;20296;-75
2024/01/21 04:34:36;;;;;;;18.70;15.18;;;;;;;-5.46;80.71;99042.25;5012068;28;20210;-75
2024/01/21 04:37:03;;;;;;;17.55;15.50;;;;;;;-5.34;80.60;99037.28;5009989;28;20279;-75
2024/01/21 04:39:29;;;;;;;18.80;15.30;;;;;;;-5.22;80.24;99048.06;5011668;28;20564;-76
2024/01/21 04:41:57;;;;;;;16.05;13.68;;;;;;;-5.18;79.58;99035.53;4985877;28;21073;-76
2024/01/21 04:44:25;;;;;;;17.63;15.35;;;;;;;-5.14;79.42;99026.53;5011800;28;20233;-76
2024/01/21 04:46:51;;;;;;;16.83;14.00;;;;;;;-5.20;79.85;99024.25;5011441;28;20205;-76
2024/01/21 04:49:18;;;;;;;18.30;14.20;;;;;;;-5.18;79.35;99027.63;5013248;28;20543;-75
2024/01/21 04:51:44;;;;;;;17.17;14.13;;;;;;;-5.23;79.08;99019.97;5011559;28;20242;-75
2024/01/21 04:54:11;;;;;;;18.38;14.73;;;;;;;-5.11;79.15;99023.75;5004036;28;20202;-76
2024/01/21 04:56:38;;;;;;;18.35;15.00;;;;;;;-5.16;78.99;99025.75;5011037;28;20198;-75
2024/01/21 04:59:06;;;;;;;16.58;13.82;;;;;;;-5.10;78.96;99033.38;5014263;28;20210;-75
2024/01/21 05:01:33;;;;;;;20.80;15.23;;;;;;;-5.15;78.64;99030.97;5002883;28;20281;-75
2024/01/21 05:04:00;;;;;;;18.98;13.60;;;;;;;-5.03;78.74;99036.53;5011108;28;20305;-75
2024/01/21 05:06:26;;;;;;;16.13;14.32;;;;;;;-5.08;78.10;99045.53;5010648;28;20217;-76
2024/01/21 05:08:53;;;;;;;19.10;14.88;;;;;;;-4.97;78.53;99044.16;5009133;28;20640;-76
2024/01/21 05:11:20;;;;;;;15.90;13.43;;;;;;;-4.85;77.75;99038.19;5012701;28;20277;-76
2024/01/21 05:13:46;;;;;;;17.65;13.40;;;;;;;-4.97;78.13;99034.44;5011459;28;20256;-75
2024/01/21 05:16:14;;;;;;;16.08;14.13;;;;;;;-4.85;77.93;99035.56;5011671;28;20195;-75
2024/01/21 05:18:41;;;;;;;19.00;13.82;;;;;;;-4.87;77.79;99034.81;5009733;28;20205;-75
2024/01/21 05:21:08;;;;;;;18.23;13.75;;;;;;;-4.93;78.02;99043.91;5017004;28;20266;-75
2024/01/21 05:23:34;;;;;;;14.68;12.98;;;;;;;-4.82;77.81;99046.81;5014603;28;20604;-75
2024/01/21 05:26:01;;;;;;;15.80;12.88;;;;;;;-4.75;76.96;99074.59;5013062;28;20290;-75
2024/01/21 05:28:27;;;;;;;14.70;12.02;;;;;;;-4.70;76.66;99084.06;5009937;28;20293;-76
2024/01/21 05:30:54;;;;;;;14.00;11.25;;;;;;;-4.65;76.94;99095.22;4995644;28;20241;-75
2024/01/21 05:33:22;;;;;;;15.00;12.10;;;;;;;-4.49;76.29;99085.53;5011287;28;20281;-76
2024/01/21 05:35:48;;;;;;;14.57;11.95;;;;;;;-4.39;76.22;99076.19;5003437;28;20207;-76
2024/01/21 05:38:15;;;;;;;14.55;12.30;;;;;;;-4.28;75.52;99078.25;5011418;28;20209;-76
2024/01/21 05:40:41;;;;;;;14.18;11.90;;;;;;;-4.39;75.40;99081.47;5009925;28;20289;-76
2024/01/21 05:43:09;;;;;;;14.00;12.25;;;;;;;-4.54;76.02;99077.00;5013065;28;20203;-75
2024/01/21 05:45:36;;;;;;;15.82;12.27;;;;;;;-4.48;75.89;99077.53;5003529;28;20226;-76
2024/01/21 05:48:02;;;;;;;16.60;11.52;;;;;;;-4.39;75.51;99065.63;5008287;28;20297;-75
2024/01/21 05:50:30;;;;;;;16.88;12.38;;;;;;;-4.35;75.16;99077.72;5010275;28;20290;-76
2024/01/21 05:52:57;;;;;;;15.07;12.35;;;;;;;-4.38;75.52;99083.19;5010776;28;20222;-76
2024/01/21 05:55:23;;;;;;;16.85;12.40;;;;;;;-4.46;75.60;99090.66;5019499;28;20201;-76
2024/01/21 05:57:50;;;;;;;14.38;10.65;;;;;;;-4.32;74.81;99093.41;5009321;28;20194;-76
2024/01/21 06:00:17;;;;;;;18.45;11.50;;;;;;;-4.25;74.55;99093.94;5011419;28;20292;-76
2024/01/21 06:02:44;;;;;;;16.17;12.80;;;;;;;-4.14;74.23;99097.69;5010151;28;20560;-76
2024/01/21 06:05:11;;;;;;;15.50;12.77;;;;;;;-4.03;74.34;99102.38;5018832;28;20257;-76
2024/01/21 06:07:39;;;;;;;15.43;12.70;;;;;;;-4.03;74.06;99112.97;5005628;28;20226;-76
2024/01/21 06:10:08;;;;;;;15.57;11.60;;;;;;;-4.01;74.42;99107.59;4990243;28;20209;-76
2024/01/21 06:12:34;;;;;;;13.95;11.70;;;;;;;-3.89;73.80;99102.44;5010329;28;20203;-76
2024/01/21 06:15:01;;;;;;;15.35;12.55;;;;;;;-3.90;73.77;99099.94;5003706;28;20285;-75
2024/01/21 06:17:27;;;;;;;14.60;10.75;;;;;;;-4.07;73.76;99104.34;5018490;28;20288;-76
2024/01/21 06:19:54;;;;;;;14.23;11.18;;;;;;;-4.11;74.36;99101.94;5008408;28;20198;-75
2024/01/21 06:22:21;;;;;;;15.30;11.27;;;;;;;-4.24;74.68;99100.94;5010793;28;20621;-76
2024/01/21 06:24:49;;;;;;;14.43;11.15;;;;;;;-4.28;75.05;99105.53;5010064;28;20221;-76
2024/01/21 06:27:15;;;;;;;14.60;11.80;;;;;;;-4.50;75.30;99089.97;5010919;28;20289;-75
2024/01/21 06:29:44;;;;;;;15.55;11.27;;;;;;;-4.61;75.90;99102.06;5016305;28;20732;-75
2024/01/21 06:32:10;;;;;;;14.40;12.30;;;;;;;-4.55;75.96;99097.31;5009167;28;20770;-76
2024/01/21 06:34:37;;;;;;;13.50;11.07;;;;;;;-4.62;75.74;99100.34;5010772;28;20198;-76
2024/01/21 06:37:04;;;;;;;15.88;12.18;;;;;;;-4.65;76.03;99106.66;5009077;28;20289;-76
2024/01/21 06:39:30;;;;;;;14.70;11.88;;;;;;;-4.75;76.40;99105.41;5011185;28;20198;-76
2024/01/21 06:41:59;;;;;;;14.90;12.90;;;;;;;-4.75;76.74;99100.13;5010491;28;20203;-75
2024/01/21 06:44:25;;;;;;;15.30;12.45;;;;;;;-4.75;76.44;99100.13;5009287;28;20236;-75
2024/01/21 06:46:52;;;;;;;15.23;12.25;;;;;;;-4.79;76.63;99098.59;5009397;28;20198;-75
2024/01/21 06:49:18;;;;;;;16.77;13.32;;;;;;;-4.81;76.93;99098.66;5006090;28;20208;-75
2024/01/21 06:51:46;;;;;;;15.88;13.50;;;;;;;-4.82;77.09;99094.31;5001617;28;20309;-76
2024/01/21 06:54:13;;;;;;;16.23;12.82;;;;;;;-4.93;77.66;99095.84;5005938;28;20206;-76
2024/01/21 06:56:40;;;;;;;18.80;15.45;;;;;;;-5.00;77.75;99090.00;5010664;28;20199;-75
2024/01/21 06:59:08;;;;;;;16.83;13.63;;;;;;;-4.97;78.08;99094.28;5010656;28;20278;-75
2024/01/21 07:01:34;;;;;;;17.98;15.07;;;;;;;-5.14;78.60;99092.50;5009797;28;20711;-75
2024/01/21 07:04:01;;;;;;;20.90;14.18;;;;;;;-5.34;79.42;99093.53;5009500;28;20836;-75
2024/01/21 07:06:27;;;;;;;18.90;14.45;;;;;;;-5.29;79.70;99094.16;5009600;28;20300;-75
2024/01/21 07:08:56;;;;;;;19.13;15.60;;;;;;;-5.47;80.27;99087.16;4991415;28;20298;-75
2024/01/21 07:11:25;;;;;;;17.33;14.43;;;;;;;-5.49;80.49;99087.22;5007613;28;20203;-75
2024/01/21 07:13:51;;;;;;;18.75;15.90;;;;;;;-5.53;81.48;99082.19;5008854;28;20198;-77
2024/01/21 07:16:19;;;;;;;17.27;15.13;;;;;;;-5.64;81.53;99087.13;5010590;28;20284;-76
2024/01/21 07:18:46;;;;;;;19.27;15.57;;;;;;;-5.52;81.78;99092.63;5009285;28;20209;-76
2024/01/21 07:21:13;;;;;;;21.92;16.65;;;;;;;-5.49;81.80;99096.91;5011524;28;20202;-73
2024/01/21 07:23:40;;;;;;;20.95;16.75;;;;;;;-5.49;81.64;99097.75;5006441;28;20198;-76
2024/01/21 07:26:06;;;;;;;21.13;17.05;;;;;;;-5.49;81.79;99105.69;5011372;28;20604;-76
2024/01/21 07:28:33;;;;;;;21.95;16.88;;;;;;;-5.36;81.84;99099.81;5011908;28;20210;-76
2024/01/21 07:31:00;;;;;;;20.15;15.65;;;;;;;-5.34;81.51;99108.50;5012698;28;20233;-75
2024/01/21 07:33:30;;;;;;;19.38;16.48;;;;;;;-5.37;81.72;99106.00;5013131;28;20202;-75
2024/01/21 07:35:58;;;;;;;22.02;16.88;;;;;;;-5.42;82.08;99107.09;5012052;28;20194;-76
2024/01/21 07:38:25;;;;;;;18.50;15.00;;;;;;;-5.28;81.88;99116.09;5022300;28;20205;-77
2024/01/21 07:40:51;;;;;;;20.20;15.20;;;;;;;-5.27;81.34;99091.44;5012777;28;20209;-76
2024/01/21 07:43:18;;;;;;;17.25;14.95;;;;;;;-5.12;80.89;99111.75;5011406;28;20683;-76
2024/01/21 07:45:45;;;;;;;17.63;14.65;;;;;;;-5.07;80.88;99115.00;4989998;28;20743;-75
2024/01/21 07:48:12;;;;;;;18.60;15.63;;;;;;;-5.03;80.29;99113.91;5010533;28;20308;-76
2024/01/21 07:50:40;;;;;;;18.33;15.40;;;;;;;-4.90;80.03;99107.09;5009677;28;20822;-76
2024/01/21 07:53:07;;;;;;;19.45;14.32;;;;;;;-4.72;79.37;99101.75;5011403;28;20253;-76
2024/01/21 07:55:33;;;;;;;17.20;13.77;;;;;;;-4.57;79.13;99108.88;4987514;28;20217;-76
2024/01/21 07:58:01;;;;;;;14.15;12.63;;;;;;;-4.21;79.89;99095.47;5014874;28;20198;-74
2024/01/21 08:00:27;;;;;;;14.10;11.98;;;;;;;-4.27;77.75;99091.38;5010075;28;20206;-74
2024/01/21 08:02:54;;;;;;;16.52;12.05;;;;;;;-3.90;77.40;99095.50;5010293;28;20584;-73
2024/01/21 08:05:21;;;;;;;16.02;11.80;;;;;;;-3.85;76.56;99093.41;5008205;28;20277;-73
2024/01/21 08:07:49;;;;;;;15.27;12.25;;;;;;;-3.85;75.68;99103.13;5014510;28;20198;-74
2024/01/21 08:10:16;;;;;;;14.43;12.23;;;;;;;-3.75;75.48;99102.53;5012953;28;20217;-74
2024/01/21 08:12:43;;;;;;;14.82;12.52;;;;;;;-3.74;75.62;99100.75;5011760;28;20213;-74
2024/01/21 08:15:10;;;;;;;13.82;11.25;;;;;;;-3.61;75.03;99096.47;5008332;28;20206;-75
2024/01/21 08:17:41;;;;;;;15.65;11.70;;;;;;;-3.66;75.23;99095.03;5017849;28;20314;-73
2024/01/21 08:20:10;;;;;;;14.40;11.43;;;;;;;-3.56;74.90;99104.97;5006154;28;20677;-72
2024/01/21 08:22:37;;;;;;;13.77;10.90;;;;;;;-3.38;74.48;99108.38;5020939;28;20205;-71
2024/01/21 08:25:06;;;;;;;14.25;11.90;;;;;;;-3.38;74.64;99114.53;5000957;28;20603;-73
2024/01/21 08:27:33;;;;;;;14.32;11.52;;;;;;;-3.22;74.33;99118.91;5005124;28;20322;-73
2024/01/21 08:30:02;;;;;;;13.55;11.57;;;;;;;-3.18;74.51;99128.38;4992288;28;20210;-73
2024/01/21 08:32:29;;;;;;;14.43;11.55;;;;;;;-3.07;74.18;99123.31;5008939;28;20191;-73
2024/01/21 08:34:55;;;;;;;12.68;10.15;;;;;;;-3.04;73.77;99120.50;5006369;28;20679;-74
2024/01/21 08:37:22;;;;;;;12.88;10.63;;;;;;;-3.22;74.26;99118.91;5006903;28;21041;-73
2024/01/21 08:39:49;;;;;;;12.25;10.48;;;;;;;-3.22;74.21;99106.53;5005908;28;20281;-73
2024/01/21 08:42:19;;;;;;;14.25;11.77;;;;;;;-3.10;74.49;99119.06;5003012;28;20202;-73
2024/01/21 08:44:45;;;;;;;15.57;11.30;;;;;;;-2.86;73.63;99119.38;5005062;28;20863;-73
2024/01/21 08:47:12;;;;;;;14.10;10.98;;;;;;;-2.92;73.54;99111.81;5003977;28;20203;-74
2024/01/21 08:49:39;;;;;;;15.07;11.55;;;;;;;-2.97;74.45;99110.41;5005526;28;20225;-73
2024/01/21 08:52:05;;;;;;;14.50;11.38;;;;;;;-2.67;73.90;99116.50;5009164;28;20285;-73
2024/01/21 08:54:32;;;;;;;11.95;10.50;;;;;;;-2.49;73.31;99115.38;5000979;28;20579;-73
2024/01/21 08:56:58;;;;;;;15.65;11.88;;;;;;;-2.65;73.88;99105.81;5006795;28;20209;-73
2024/01/21 08:59:26;;;;;;;14.50;10.90;;;;;;;-2.62;74.04;99097.69;5002770;28;20201;-73
2024/01/21 09:02:34;;;;;;;11.65;10.10;;;;;;;-2.67;74.25;99107.69;5004841;28;21906;-73
2024/01/21 09:05:01;;;;;;;12.57;11.27;;;;;;;-2.51;74.02;99116.41;5005084;28;20710;-73
2024/01/21 09:07:28;;;;;;;13.15;10.73;;;;;;;-2.61;74.06;99113.47;5007771;28;20195;-73
2024/01/21 09:09:54;;;;;;;14.68;11.98;;;;;;;-2.50;73.95;99118.97;5007212;28;20210;-73
2024/01/21 09:12:21;;;;;;;14.35;10.50;;;;;;;-2.38;73.58;99118.22;5009012;28;20209;-73
2024/01/21 09:14:49;;;;;;;13.40;11.50;;;;;;;-2.45;73.75;99114.22;5008541;28;20203;-72
2024/01/21 09:17:15;;;;;;;13.93;12.32;;;;;;;-2.34;73.73;99124.19;5009593;28;20556;-73
2024/01/21 09:19:43;;;;;;;12.63;11.32;;;;;;;-2.36;73.73;99115.47;5003057;28;20221;-72
2024/01/21 09:22:10;;;;;;;12.55;10.52;;;;;;;-2.41;73.46;99117.56;5008730;28;21172;-73
2024/01/21 09:24:36;;;;;;;14.52;11.18;;;;;;;-2.49;73.74;99114.50;5002982;28;20207;-73
2024/01/21 09:27:03;;;;;;;12.95;10.68;;;;;;;-2.48;74.10;99116.22;5005969;28;20699;-73
2024/01/21 09:29:30;;;;;;;11.25;9.88;;;;;;;-2.46;74.47;99109.03;5023757;28;20205;-73
2024/01/21 09:31:59;;;;;;;12.80;11.07;;;;;;;-2.59;75.08;99110.72;4998428;28;20234;-73
2024/01/21 09:34:25;;;;;;;12.80;10.48;;;;;;;-2.39;74.69;99105.06;4995652;28;20220;-74
2024/01/21 09:36:52;;;;;;;13.25;11.30;;;;;;;-2.30;74.70;99104.50;5002679;28;20201;-74
2024/01/21 09:39:19;;;;;;;11.85;10.50;;;;;;;-2.18;74.01;99103.72;4997119;28;20217;-73
2024/01/21 09:41:49;;;;;;;12.85;10.43;;;;;;;-2.05;73.60;99115.25;5001101;28;20290;-72
2024/01/21 09:44:16;;;;;;;12.52;10.30;;;;;;;-1.94;73.22;99116.34;5001567;28;20660;-72
2024/01/21 09:46:43;;;;;;;13.02;10.60;;;;;;;-1.74;72.69;99118.59;5007240;28;20233;-73
2024/01/21 09:49:11;;;;;;;14.13;10.70;;;;;;;-1.59;72.36;99136.19;5009612;28;20209;-74
2024/01/21 09:51:38;;;;;;;13.55;10.10;;;;;;;-1.40;71.52;99144.66;5001388;28;20199;-75
2024/01/21 09:54:06;;;;;;;11.93;10.30;;;;;;;-1.33;71.06;99128.34;5008356;28;20545;-73
2024/01/21 09:56:33;;;;;;;11.68;10.35;;;;;;;-1.31;71.48;99139.72;5008216;28;20219;-73
2024/01/21 09:59:00;;;;;;;11.77;10.60;;;;;;;-1.17;71.14;99134.31;5007817;28;20203;-74
2024/01/21 10:01:26;;;;;;;12.35;10.98;;;;;;;-1.20;70.87;99130.06;5004353;28;20281;-73
2024/01/21 10:03:53;;;;;;;12.38;10.88;;;;;;;-1.05;70.84;99138.84;5008325;28;20202;-73
2024/01/21 10:06:21;;;;;;;12.35;9.73;;;;;;;-0.85;70.12;99138.34;5007003;28;20217;-73
2024/01/21 10:08:49;;;;;;;13.20;11.80;;;;;;;-0.75;69.74;99131.44;5010184;28;20294;-73
2024/01/21 10:11:16;;;;;;;11.50;10.30;;;;;;;-0.79;70.14;99132.63;5005917;28;20217;-73
2024/01/21 10:13:42;;;;;;;14.13;10.90;;;;;;;-0.62;69.57;99128.78;5008681;28;20230;-74
2024/01/21 10:16:10;;;;;;;10.68;9.57;;;;;;;-0.76;69.00;99121.78;5000400;28;20198;-73
2024/01/21 10:18:37;;;;;;;11.85;9.88;;;;;;;-0.33;68.04;99126.81;5006610;28;20261;-73
2024/01/21 10:21:05;;;;;;;11.95;10.45;;;;;;;-0.13;67.88;99138.69;4993570;28;20199;-74
2024/01/21 10:23:33;;;;;;;11.25;10.15;;;;;;;0.19;66.72;99139.91;5008115;28;20198;-73
2024/01/21 10:25:59;;;;;;;11.52;9.88;;;;;;;0.09;66.98;99148.66;5004062;28;20218;-73
2024/01/21 10:28:26;;;;;;;12.27;11.02;;;;;;;0.02;66.08;99144.72;5007023;28;20210;-73
2024/01/21 10:30:53;;;;;;;12.82;10.60;;;;;;;-0.27;67.98;99113.06;5007273;28;20203;-73
2024/01/21 10:33:19;;;;;;;11.05;9.93;;;;;;;-0.32;68.53;99096.56;4999712;28;20206;-73
2024/01/21 10:35:49;;;;;;;11.27;10.07;;;;;;;0.07;67.95;99118.63;5008750;28;20220;-73
2024/01/21 10:38:15;;;;;;;12.18;10.40;;;;;;;0.38;66.82;99112.81;5015650;28;20209;-73
2024/01/21 10:40:44;;;;;;;11.02;9.93;;;;;;;0.61;66.26;99129.78;5008199;28;20201;-74
2024/01/21 10:43:13;;;;;;;10.95;9.93;;;;;;;0.89;65.42;99136.56;5007357;28;20206;-73
2024/01/21 10:45:41;;;;;;;10.52;9.45;;;;;;;0.96;65.23;99137.81;5006337;28;20237;-72
2024/01/21 10:48:09;;;;;;;11.75;10.48;;;;;;;1.10;64.83;99124.28;5010221;28;20202;-72
2024/01/21 10:50:35;;;;;;;11.50;10.30;;;;;;;1.42;64.92;99112.97;5000150;28;20668;-72
2024/01/21 10:53:02;;;;;;;11.20;10.02;;;;;;;1.42;64.36;99121.84;5005530;28;20242;-72
2024/01/21 10:55:29;;;;;;;10.73;9.73;;;;;;;1.48;63.32;99120.53;5007442;28;20205;-73
2024/01/21 10:57:57;;;;;;;11.27;10.15;;;;;;;1.46;63.89;99112.63;5009352;28;20198;-73
2024/01/21 11:00:24;;;;;;;11.70;10.50;;;;;;;1.65;62.99;99117.38;5009640;28;20281;-73
2024/01/21 11:03:25;;;;;;;10.68;9.68;;;;;;;1.76;62.88;99108.53;5007258;28;20660;-72
2024/01/21 11:05:55;;;;;;;10.57;9.57;;;;;;;1.61;63.16;99115.94;4999271;28;20222;-72
2024/01/21 11:08:23;;;;;;;12.20;11.10;;;;;;;1.65;62.54;99115.56;5009580;28;20653;-73
2024/01/21 11:10:53;;;;;;;10.85;9.85;;;;;;;1.91;62.28;99144.72;5022185;28;20221;-73
2024/01/21 11:13:42;;;;;;;10.38;9.43;;;;;;;2.47;61.45;99158.88;5002884;28;20209;-74
2024/01/21 11:16:11;;;;;;;11.10;9.50;;;;;;;2.88;60.12;99170.72;5002008;28;20202;-73
2024/01/21 11:18:38;;;;;;;11.38;10.07;;;;;;;3.04;59.33;99165.78;5004545;28;20222;-73